sensor_id;sensor_type;location;lat;lon;timestamp;P1;durP1;ratioP1;P2;durP2;ratioP2
64868;SDS011;51349;52.424;10.840;2023-11-21T00:03:41;19.83;;;6.90;;
64868;SDS011;51349;52.424;10.840;2023-11-21T00:08:42;13.37;;;6.53;;
64868;SDS011;51349;52.424;10.840;2023-11-21T00:13:43;11.53;;;6.60;;
64868;SDS011;51349;52.424;10.840;2023-11-21T00:18:44;12.83;;;7.40;;
64868;SDS011;51349;52.424;10.840;2023-11-21T00:23:46;18.37;;;7.17;;
64868;SDS011;51349;52.424;10.840;2023-11-21T00:28:49;16.57;;;7.50;;
64868;SDS011;51349;52.424;10.840;2023-11-21T00:33:50;15.23;;;7.13;;
64868;SDS011;51349;52.424;10.840;2023-11-21T00:38:51;10.53;;;7.10;;
64868;SDS011;51349;52.424;10.840;2023-11-21T00:43:51;13.80;;;7.03;;
64868;SDS011;51349;52.424;10.840;2023-11-21T00:48:52;12.53;;;6.80;;
64868;SDS011;51349;52.424;10.840;2023-11-21T00:53:54;10.87;;;6.70;;
64868;SDS011;51349;52.424;10.840;2023-11-21T00:58:54;12.70;;;6.97;;
64868;SDS011;51349;52.424;10.840;2023-11-21T01:03:55;17.33;;;7.23;;
64868;SDS011;51349;52.424;10.840;2023-11-21T01:08:56;17.27;;;7.43;;
64868;SDS011;51349;52.424;10.840;2023-11-21T01:13:56;11.93;;;6.97;;
64868;SDS011;51349;52.424;10.840;2023-11-21T01:18:57;17.77;;;8.20;;
64868;SDS011;51349;52.424;10.840;2023-11-21T01:23:59;10.87;;;6.80;;
64868;SDS011;51349;52.424;10.840;2023-11-21T01:28:59;16.80;;;7.63;;
64868;SDS011;51349;52.424;10.840;2023-11-21T01:34:00;13.90;;;7.00;;
64868;SDS011;51349;52.424;10.840;2023-11-21T01:39:01;13.23;;;7.30;;
64868;SDS011;51349;52.424;10.840;2023-11-21T01:44:08;11.33;;;6.27;;
64868;SDS011;51349;52.424;10.840;2023-11-21T01:49:09;12.60;;;7.30;;
64868;SDS011;51349;52.424;10.840;2023-11-21T01:54:13;13.57;;;7.00;;
64868;SDS011;51349;52.424;10.840;2023-11-21T01:59:15;16.90;;;7.83;;
64868;SDS011;51349;52.424;10.840;2023-11-21T02:04:19;12.17;;;7.20;;
64868;SDS011;51349;52.424;10.840;2023-11-21T02:09:27;14.13;;;7.23;;
64868;SDS011;51349;52.424;10.840;2023-11-21T02:14:30;11.73;;;7.53;;
64868;SDS011;51349;52.424;10.840;2023-11-21T02:19:31;17.03;;;7.27;;
64868;SDS011;51349;52.424;10.840;2023-11-21T02:24:32;15.60;;;7.17;;
64868;SDS011;51349;52.424;10.840;2023-11-21T02:29:33;16.80;;;7.73;;
64868;SDS011;51349;52.424;10.840;2023-11-21T02:34:33;15.13;;;7.97;;
64868;SDS011;51349;52.424;10.840;2023-11-21T02:39:34;14.30;;;8.33;;
64868;SDS011;51349;52.424;10.840;2023-11-21T02:44:35;13.80;;;7.90;;
64868;SDS011;51349;52.424;10.840;2023-11-21T02:49:35;15.30;;;7.70;;
64868;SDS011;51349;52.424;10.840;2023-11-21T02:54:36;16.00;;;8.30;;
64868;SDS011;51349;52.424;10.840;2023-11-21T02:59:37;17.87;;;8.43;;
64868;SDS011;51349;52.424;10.840;2023-11-21T03:04:37;12.57;;;8.73;;
64868;SDS011;51349;52.424;10.840;2023-11-21T03:09:38;16.73;;;8.70;;
64868;SDS011;51349;52.424;10.840;2023-11-21T03:14:39;14.63;;;8.67;;
64868;SDS011;51349;52.424;10.840;2023-11-21T03:19:41;16.07;;;8.97;;
64868;SDS011;51349;52.424;10.840;2023-11-21T03:24:42;16.23;;;9.10;;
64868;SDS011;51349;52.424;10.840;2023-11-21T03:29:42;16.37;;;9.20;;
64868;SDS011;51349;52.424;10.840;2023-11-21T03:34:54;17.30;;;9.33;;
64868;SDS011;51349;52.424;10.840;2023-11-21T03:39:58;19.33;;;8.73;;
64868;SDS011;51349;52.424;10.840;2023-11-21T03:44:59;16.83;;;9.27;;
64868;SDS011;51349;52.424;10.840;2023-11-21T03:50:00;14.40;;;8.87;;
64868;SDS011;51349;52.424;10.840;2023-11-21T03:55:01;18.47;;;10.33;;
64868;SDS011;51349;52.424;10.840;2023-11-21T04:00:03;16.27;;;9.30;;
64868;SDS011;51349;52.424;10.840;2023-11-21T04:05:08;21.57;;;9.90;;
64868;SDS011;51349;52.424;10.840;2023-11-21T04:10:09;13.33;;;8.87;;
64868;SDS011;51349;52.424;10.840;2023-11-21T04:15:12;17.33;;;9.47;;
64868;SDS011;51349;52.424;10.840;2023-11-21T04:20:14;20.23;;;9.13;;
64868;SDS011;51349;52.424;10.840;2023-11-21T04:25:15;12.87;;;7.93;;
64868;SDS011;51349;52.424;10.840;2023-11-21T04:30:16;13.00;;;8.13;;
64868;SDS011;51349;52.424;10.840;2023-11-21T04:35:16;10.67;;;5.37;;
64868;SDS011;51349;52.424;10.840;2023-11-21T04:40:17;4.80;;;3.50;;
64868;SDS011;51349;52.424;10.840;2023-11-21T04:45:18;2.80;;;2.33;;
64868;SDS011;51349;52.424;10.840;2023-11-21T04:50:18;2.00;;;1.90;;
64868;SDS011;51349;52.424;10.840;2023-11-21T04:55:20;2.27;;;2.07;;
64868;SDS011;51349;52.424;10.840;2023-11-21T05:00:21;3.00;;;1.93;;
64868;SDS011;51349;52.424;10.840;2023-11-21T05:05:21;4.33;;;1.90;;
64868;SDS011;51349;52.424;10.840;2023-11-21T05:10:22;2.10;;;2.00;;
64868;SDS011;51349;52.424;10.840;2023-11-21T05:15:23;2.23;;;2.07;;
64868;SDS011;51349;52.424;10.840;2023-11-21T05:20:24;2.70;;;2.50;;
64868;SDS011;51349;52.424;10.840;2023-11-21T05:25:25;3.37;;;2.87;;
64868;SDS011;51349;52.424;10.840;2023-11-21T05:30:26;3.07;;;2.80;;
64868;SDS011;51349;52.424;10.840;2023-11-21T05:35:26;8.07;;;5.33;;
64868;SDS011;51349;52.424;10.840;2023-11-21T05:40:27;8.33;;;5.90;;
64868;SDS011;51349;52.424;10.840;2023-11-21T05:45:30;7.47;;;6.60;;
64868;SDS011;51349;52.424;10.840;2023-11-21T05:50:30;6.90;;;6.13;;
64868;SDS011;51349;52.424;10.840;2023-11-21T05:55:32;10.00;;;6.73;;
64868;SDS011;51349;52.424;10.840;2023-11-21T06:00:33;10.93;;;7.17;;
64868;SDS011;51349;52.424;10.840;2023-11-21T06:05:33;9.60;;;6.70;;
64868;SDS011;51349;52.424;10.840;2023-11-21T06:10:34;10.27;;;6.87;;
64868;SDS011;51349;52.424;10.840;2023-11-21T06:15:35;10.27;;;7.57;;
64868;SDS011;51349;52.424;10.840;2023-11-21T06:20:36;9.47;;;7.80;;
64868;SDS011;51349;52.424;10.840;2023-11-21T06:25:37;11.40;;;7.80;;
64868;SDS011;51349;52.424;10.840;2023-11-21T06:30:38;10.27;;;7.63;;
64868;SDS011;51349;52.424;10.840;2023-11-21T06:35:38;12.40;;;8.17;;
64868;SDS011;51349;52.424;10.840;2023-11-21T06:40:40;10.80;;;7.83;;
64868;SDS011;51349;52.424;10.840;2023-11-21T06:45:41;10.27;;;7.50;;
64868;SDS011;51349;52.424;10.840;2023-11-21T06:50:41;11.40;;;7.67;;
64868;SDS011;51349;52.424;10.840;2023-11-21T06:55:42;9.77;;;7.50;;
64868;SDS011;51349;52.424;10.840;2023-11-21T07:00:43;11.53;;;7.53;;
64868;SDS011;51349;52.424;10.840;2023-11-21T07:05:46;10.27;;;7.00;;
64868;SDS011;51349;52.424;10.840;2023-11-21T07:10:47;10.40;;;7.77;;
64868;SDS011;51349;52.424;10.840;2023-11-21T07:15:49;11.00;;;7.67;;
64868;SDS011;51349;52.424;10.840;2023-11-21T07:20:49;11.67;;;7.93;;
64868;SDS011;51349;52.424;10.840;2023-11-21T07:25:50;11.60;;;6.57;;
64868;SDS011;51349;52.424;10.840;2023-11-21T07:30:51;8.57;;;6.50;;
64868;SDS011;51349;52.424;10.840;2023-11-21T07:35:52;10.70;;;6.23;;
64868;SDS011;51349;52.424;10.840;2023-11-21T07:40:53;10.60;;;5.67;;
64868;SDS011;51349;52.424;10.840;2023-11-21T07:45:54;7.30;;;5.80;;
64868;SDS011;51349;52.424;10.840;2023-11-21T07:50:55;6.07;;;5.43;;
64868;SDS011;51349;52.424;10.840;2023-11-21T07:55:56;5.83;;;5.17;;
64868;SDS011;51349;52.424;10.840;2023-11-21T08:00:58;8.13;;;5.60;;
64868;SDS011;51349;52.424;10.840;2023-11-21T08:05:59;6.23;;;4.83;;
64868;SDS011;51349;52.424;10.840;2023-11-21T08:11:00;7.80;;;5.10;;
64868;SDS011;51349;52.424;10.840;2023-11-21T08:16:03;6.97;;;5.23;;
64868;SDS011;51349;52.424;10.840;2023-11-21T08:21:07;7.67;;;5.60;;
64868;SDS011;51349;52.424;10.840;2023-11-21T08:26:08;10.17;;;5.23;;
64868;SDS011;51349;52.424;10.840;2023-11-21T08:31:08;5.50;;;4.97;;
64868;SDS011;51349;52.424;10.840;2023-11-21T08:36:09;8.47;;;6.17;;
64868;SDS011;51349;52.424;10.840;2023-11-21T08:41:12;9.63;;;7.77;;
64868;SDS011;51349;52.424;10.840;2023-11-21T08:46:14;8.80;;;6.80;;
64868;SDS011;51349;52.424;10.840;2023-11-21T08:51:17;8.03;;;5.60;;
64868;SDS011;51349;52.424;10.840;2023-11-21T08:56:17;7.87;;;6.13;;
64868;SDS011;51349;52.424;10.840;2023-11-21T09:01:20;8.83;;;6.40;;
64868;SDS011;51349;52.424;10.840;2023-11-21T09:06:21;7.33;;;5.80;;
64868;SDS011;51349;52.424;10.840;2023-11-21T09:11:21;8.13;;;5.90;;
64868;SDS011;51349;52.424;10.840;2023-11-21T09:16:27;6.50;;;5.90;;
64868;SDS011;51349;52.424;10.840;2023-11-21T09:21:28;7.73;;;5.67;;
64868;SDS011;51349;52.424;10.840;2023-11-21T09:26:28;8.03;;;6.23;;
64868;SDS011;51349;52.424;10.840;2023-11-21T09:31:30;8.20;;;5.80;;
64868;SDS011;51349;52.424;10.840;2023-11-21T09:36:31;11.03;;;5.87;;
64868;SDS011;51349;52.424;10.840;2023-11-21T09:46:51;7.00;;;5.53;;
64868;SDS011;51349;52.424;10.840;2023-11-21T09:51:54;7.73;;;5.80;;
64868;SDS011;51349;52.424;10.840;2023-11-21T09:56:59;7.53;;;5.50;;
64868;SDS011;51349;52.424;10.840;2023-11-21T10:02:00;11.03;;;6.80;;
64868;SDS011;51349;52.424;10.840;2023-11-21T10:07:04;8.30;;;7.40;;
64868;SDS011;51349;52.424;10.840;2023-11-21T10:12:09;6.60;;;5.87;;
64868;SDS011;51349;52.424;10.840;2023-11-21T10:17:12;6.57;;;5.70;;
64868;SDS011;51349;52.424;10.840;2023-11-21T10:22:17;6.53;;;5.80;;
64868;SDS011;51349;52.424;10.840;2023-11-21T10:27:19;6.23;;;5.63;;
64868;SDS011;51349;52.424;10.840;2023-11-21T10:32:20;8.07;;;6.00;;
64868;SDS011;51349;52.424;10.840;2023-11-21T10:37:21;7.40;;;6.17;;
64868;SDS011;51349;52.424;10.840;2023-11-21T10:42:21;6.07;;;5.50;;
64868;SDS011;51349;52.424;10.840;2023-11-21T10:47:24;5.90;;;5.40;;
64868;SDS011;51349;52.424;10.840;2023-11-21T10:52:26;5.83;;;5.23;;
64868;SDS011;51349;52.424;10.840;2023-11-21T10:57:27;8.60;;;5.97;;
64868;SDS011;51349;52.424;10.840;2023-11-21T11:02:28;6.07;;;5.47;;
64868;SDS011;51349;52.424;10.840;2023-11-21T11:07:32;8.47;;;5.33;;
64868;SDS011;51349;52.424;10.840;2023-11-21T11:12:35;7.10;;;5.03;;
64868;SDS011;51349;52.424;10.840;2023-11-21T11:17:37;6.13;;;4.80;;
64868;SDS011;51349;52.424;10.840;2023-11-21T11:22:44;5.60;;;5.03;;
64868;SDS011;51349;52.424;10.840;2023-11-21T11:28:04;7.00;;;5.20;;
64868;SDS011;51349;52.424;10.840;2023-11-21T11:33:26;5.73;;;5.20;;
64868;SDS011;51349;52.424;10.840;2023-11-21T11:38:45;5.03;;;4.53;;
64868;SDS011;51349;52.424;10.840;2023-11-21T11:43:46;6.30;;;5.10;;
64868;SDS011;51349;52.424;10.840;2023-11-21T11:48:48;5.37;;;4.80;;
64868;SDS011;51349;52.424;10.840;2023-11-21T11:54:03;4.70;;;4.30;;
64868;SDS011;51349;52.424;10.840;2023-11-21T11:59:06;5.93;;;4.97;;
64868;SDS011;51349;52.424;10.840;2023-11-21T12:09:21;7.63;;;4.00;;
64868;SDS011;51349;52.424;10.840;2023-11-21T12:14:35;4.53;;;4.13;;
64868;SDS011;51349;52.424;10.840;2023-11-21T12:19:36;4.90;;;3.27;;
64868;SDS011;51349;52.424;10.840;2023-11-21T12:24:50;3.77;;;3.47;;
64868;SDS011;51349;52.424;10.840;2023-11-21T12:30:07;3.80;;;3.50;;
64868;SDS011;51349;52.424;10.840;2023-11-21T12:35:13;4.07;;;3.63;;
64868;SDS011;51349;52.424;10.840;2023-11-21T12:40:15;5.13;;;4.73;;
64868;SDS011;51349;52.424;10.840;2023-11-21T12:50:29;4.17;;;3.77;;
64868;SDS011;51349;52.424;10.840;2023-11-21T12:55:36;5.13;;;4.03;;
64868;SDS011;51349;52.424;10.840;2023-11-21T13:00:45;8.63;;;3.83;;
64868;SDS011;51349;52.424;10.840;2023-11-21T13:05:48;5.17;;;3.77;;
64868;SDS011;51349;52.424;10.840;2023-11-21T13:10:54;5.03;;;4.03;;
64868;SDS011;51349;52.424;10.840;2023-11-21T13:16:00;4.77;;;3.40;;
64868;SDS011;51349;52.424;10.840;2023-11-21T13:21:05;4.17;;;3.20;;
64868;SDS011;51349;52.424;10.840;2023-11-21T13:26:17;4.17;;;3.50;;
64868;SDS011;51349;52.424;10.840;2023-11-21T13:31:21;3.23;;;3.00;;
64868;SDS011;51349;52.424;10.840;2023-11-21T13:36:29;6.07;;;3.27;;
64868;SDS011;51349;52.424;10.840;2023-11-21T13:41:33;3.27;;;2.97;;
64868;SDS011;51349;52.424;10.840;2023-11-21T13:46:34;5.47;;;3.20;;
64868;SDS011;51349;52.424;10.840;2023-11-21T13:51:37;5.40;;;3.47;;
64868;SDS011;51349;52.424;10.840;2023-11-21T13:56:43;4.23;;;3.30;;
64868;SDS011;51349;52.424;10.840;2023-11-21T14:01:46;5.37;;;3.67;;
64868;SDS011;51349;52.424;10.840;2023-11-21T14:06:53;4.40;;;3.67;;
64868;SDS011;51349;52.424;10.840;2023-11-21T14:11:55;4.10;;;3.70;;
64868;SDS011;51349;52.424;10.840;2023-11-21T14:16:57;4.13;;;3.60;;
64868;SDS011;51349;52.424;10.840;2023-11-21T14:21:59;10.53;;;3.53;;
64868;SDS011;51349;52.424;10.840;2023-11-21T14:27:00;4.57;;;4.17;;
64868;SDS011;51349;52.424;10.840;2023-11-21T14:32:01;4.40;;;3.80;;
64868;SDS011;51349;52.424;10.840;2023-11-21T14:37:01;4.10;;;3.70;;
64868;SDS011;51349;52.424;10.840;2023-11-21T14:42:03;4.70;;;4.20;;
64868;SDS011;51349;52.424;10.840;2023-11-21T14:47:04;5.93;;;3.80;;
64868;SDS011;51349;52.424;10.840;2023-11-21T14:52:12;5.07;;;4.10;;
64868;SDS011;51349;52.424;10.840;2023-11-21T14:57:33;4.13;;;3.73;;
64868;SDS011;51349;52.424;10.840;2023-11-21T15:02:33;10.60;;;5.87;;
64868;SDS011;51349;52.424;10.840;2023-11-21T15:07:49;5.97;;;4.53;;
64868;SDS011;51349;52.424;10.840;2023-11-21T15:12:52;8.80;;;4.33;;
64868;SDS011;51349;52.424;10.840;2023-11-21T15:17:52;7.23;;;4.27;;
64868;SDS011;51349;52.424;10.840;2023-11-21T15:22:53;9.17;;;4.07;;
64868;SDS011;51349;52.424;10.840;2023-11-21T15:27:54;9.33;;;5.17;;
64868;SDS011;51349;52.424;10.840;2023-11-21T15:32:54;5.80;;;4.60;;
64868;SDS011;51349;52.424;10.840;2023-11-21T15:37:55;6.40;;;5.60;;
64868;SDS011;51349;52.424;10.840;2023-11-21T15:42:58;9.20;;;4.77;;
64868;SDS011;51349;52.424;10.840;2023-11-21T15:47:59;7.80;;;5.13;;
64868;SDS011;51349;52.424;10.840;2023-11-21T15:53:01;6.67;;;4.77;;
64868;SDS011;51349;52.424;10.840;2023-11-21T15:58:04;8.90;;;5.80;;
64868;SDS011;51349;52.424;10.840;2023-11-21T16:03:06;9.57;;;6.57;;
64868;SDS011;51349;52.424;10.840;2023-11-21T16:08:09;6.90;;;4.87;;
64868;SDS011;51349;52.424;10.840;2023-11-21T16:13:10;9.40;;;4.77;;
64868;SDS011;51349;52.424;10.840;2023-11-21T16:18:13;6.20;;;4.30;;
64868;SDS011;51349;52.424;10.840;2023-11-21T16:23:14;4.70;;;4.30;;
64868;SDS011;51349;52.424;10.840;2023-11-21T16:28:16;8.80;;;5.00;;
64868;SDS011;51349;52.424;10.840;2023-11-21T16:33:18;7.83;;;5.97;;
64868;SDS011;51349;52.424;10.840;2023-11-21T16:38:19;7.20;;;5.43;;
64868;SDS011;51349;52.424;10.840;2023-11-21T16:43:20;7.17;;;5.27;;
64868;SDS011;51349;52.424;10.840;2023-11-21T16:48:21;5.67;;;5.13;;
64868;SDS011;51349;52.424;10.840;2023-11-21T16:53:21;6.80;;;5.27;;
64868;SDS011;51349;52.424;10.840;2023-11-21T16:58:22;8.03;;;5.03;;
64868;SDS011;51349;52.424;10.840;2023-11-21T17:03:23;5.47;;;4.97;;
64868;SDS011;51349;52.424;10.840;2023-11-21T17:08:25;6.47;;;5.57;;
64868;SDS011;51349;52.424;10.840;2023-11-21T17:13:25;7.87;;;4.93;;
64868;SDS011;51349;52.424;10.840;2023-11-21T17:18:26;8.57;;;5.00;;
64868;SDS011;51349;52.424;10.840;2023-11-21T17:23:27;4.37;;;3.97;;
64868;SDS011;51349;52.424;10.840;2023-11-21T17:28:28;5.63;;;4.40;;
64868;SDS011;51349;52.424;10.840;2023-11-21T17:33:29;9.53;;;4.83;;
64868;SDS011;51349;52.424;10.840;2023-11-21T17:38:31;7.10;;;5.17;;
64868;SDS011;51349;52.424;10.840;2023-11-21T17:43:32;7.60;;;4.90;;
64868;SDS011;51349;52.424;10.840;2023-11-21T17:48:37;5.93;;;4.77;;
64868;SDS011;51349;52.424;10.840;2023-11-21T17:53:40;5.07;;;4.57;;
64868;SDS011;51349;52.424;10.840;2023-11-21T17:58:43;5.17;;;4.00;;
64868;SDS011;51349;52.424;10.840;2023-11-21T18:03:45;6.87;;;3.97;;
64868;SDS011;51349;52.424;10.840;2023-11-21T18:08:45;4.77;;;3.67;;
64868;SDS011;51349;52.424;10.840;2023-11-21T18:13:46;4.60;;;3.67;;
64868;SDS011;51349;52.424;10.840;2023-11-21T18:18:47;3.53;;;3.23;;
64868;SDS011;51349;52.424;10.840;2023-11-21T18:23:50;4.13;;;3.50;;
64868;SDS011;51349;52.424;10.840;2023-11-21T18:28:51;8.13;;;3.50;;
64868;SDS011;51349;52.424;10.840;2023-11-21T18:33:52;5.77;;;3.37;;
64868;SDS011;51349;52.424;10.840;2023-11-21T18:38:53;5.30;;;3.37;;
64868;SDS011;51349;52.424;10.840;2023-11-21T18:43:54;4.87;;;4.03;;
64868;SDS011;51349;52.424;10.840;2023-11-21T18:48:54;3.43;;;3.00;;
64868;SDS011;51349;52.424;10.840;2023-11-21T18:53:56;3.70;;;3.40;;
64868;SDS011;51349;52.424;10.840;2023-11-21T18:58:56;5.07;;;3.40;;
64868;SDS011;51349;52.424;10.840;2023-11-21T19:03:58;3.83;;;3.30;;
64868;SDS011;51349;52.424;10.840;2023-11-21T19:08:59;3.17;;;2.97;;
64868;SDS011;51349;52.424;10.840;2023-11-21T19:14:00;4.73;;;3.37;;
64868;SDS011;51349;52.424;10.840;2023-11-21T19:19:00;6.53;;;3.30;;
64868;SDS011;51349;52.424;10.840;2023-11-21T19:24:01;3.50;;;3.20;;
64868;SDS011;51349;52.424;10.840;2023-11-21T19:29:02;3.40;;;3.10;;
64868;SDS011;51349;52.424;10.840;2023-11-21T19:34:05;5.30;;;4.90;;
64868;SDS011;51349;52.424;10.840;2023-11-21T19:39:05;5.43;;;4.00;;
64868;SDS011;51349;52.424;10.840;2023-11-21T19:44:07;3.60;;;3.27;;
64868;SDS011;51349;52.424;10.840;2023-11-21T19:49:07;5.20;;;3.43;;
64868;SDS011;51349;52.424;10.840;2023-11-21T19:54:09;3.83;;;2.97;;
64868;SDS011;51349;52.424;10.840;2023-11-21T19:59:10;3.53;;;3.10;;
64868;SDS011;51349;52.424;10.840;2023-11-21T20:04:11;4.13;;;2.93;;
64868;SDS011;51349;52.424;10.840;2023-11-21T20:09:11;3.50;;;3.10;;
64868;SDS011;51349;52.424;10.840;2023-11-21T20:14:12;3.60;;;3.30;;
64868;SDS011;51349;52.424;10.840;2023-11-21T20:19:13;3.33;;;3.07;;
64868;SDS011;51349;52.424;10.840;2023-11-21T20:24:14;4.73;;;3.87;;
64868;SDS011;51349;52.424;10.840;2023-11-21T20:29:16;5.10;;;3.60;;
64868;SDS011;51349;52.424;10.840;2023-11-21T20:34:17;10.10;;;4.20;;
64868;SDS011;51349;52.424;10.840;2023-11-21T20:39:19;5.03;;;4.30;;
64868;SDS011;51349;52.424;10.840;2023-11-21T20:44:20;5.63;;;3.63;;
64868;SDS011;51349;52.424;10.840;2023-11-21T20:49:21;5.27;;;3.50;;
64868;SDS011;51349;52.424;10.840;2023-11-21T20:54:21;8.20;;;3.80;;
64868;SDS011;51349;52.424;10.840;2023-11-21T20:59:22;6.03;;;4.20;;
64868;SDS011;51349;52.424;10.840;2023-11-21T21:04:23;4.10;;;3.70;;
64868;SDS011;51349;52.424;10.840;2023-11-21T21:09:23;6.47;;;3.60;;
64868;SDS011;51349;52.424;10.840;2023-11-21T21:14:24;4.63;;;3.50;;
64868;SDS011;51349;52.424;10.840;2023-11-21T21:19:29;4.60;;;3.27;;
64868;SDS011;51349;52.424;10.840;2023-11-21T21:24:32;6.87;;;3.50;;
64868;SDS011;51349;52.424;10.840;2023-11-21T21:29:33;3.40;;;2.73;;
64868;SDS011;51349;52.424;10.840;2023-11-21T21:34:34;6.50;;;3.40;;
64868;SDS011;51349;52.424;10.840;2023-11-21T21:39:35;5.20;;;3.33;;
64868;SDS011;51349;52.424;10.840;2023-11-21T21:44:35;5.10;;;3.50;;
64868;SDS011;51349;52.424;10.840;2023-11-21T21:49:38;3.67;;;3.30;;
64868;SDS011;51349;52.424;10.840;2023-11-21T21:54:40;3.63;;;3.33;;
64868;SDS011;51349;52.424;10.840;2023-11-21T21:59:41;4.00;;;3.63;;
64868;SDS011;51349;52.424;10.840;2023-11-21T22:04:42;3.27;;;2.90;;
64868;SDS011;51349;52.424;10.840;2023-11-21T22:09:43;5.57;;;3.30;;
64868;SDS011;51349;52.424;10.840;2023-11-21T22:14:43;3.30;;;2.97;;
64868;SDS011;51349;52.424;10.840;2023-11-21T22:19:45;3.60;;;3.23;;
64868;SDS011;51349;52.424;10.840;2023-11-21T22:24:46;4.30;;;3.00;;
64868;SDS011;51349;52.424;10.840;2023-11-21T22:29:46;3.00;;;2.63;;
64868;SDS011;51349;52.424;10.840;2023-11-21T22:34:47;4.70;;;3.40;;
64868;SDS011;51349;52.424;10.840;2023-11-21T22:39:48;4.47;;;3.40;;
64868;SDS011;51349;52.424;10.840;2023-11-21T22:44:49;5.17;;;2.90;;
64868;SDS011;51349;52.424;10.840;2023-11-21T22:49:49;3.50;;;2.90;;
64868;SDS011;51349;52.424;10.840;2023-11-21T22:54:50;2.87;;;2.57;;
64868;SDS011;51349;52.424;10.840;2023-11-21T22:59:51;3.10;;;2.80;;
64868;SDS011;51349;52.424;10.840;2023-11-21T23:04:51;3.50;;;2.80;;
64868;SDS011;51349;52.424;10.840;2023-11-21T23:09:52;4.13;;;3.20;;
64868;SDS011;51349;52.424;10.840;2023-11-21T23:14:53;4.10;;;2.90;;
64868;SDS011;51349;52.424;10.840;2023-11-21T23:19:53;5.00;;;2.77;;
64868;SDS011;51349;52.424;10.840;2023-11-21T23:24:55;3.10;;;2.80;;
64868;SDS011;51349;52.424;10.840;2023-11-21T23:29:55;2.80;;;2.60;;
64868;SDS011;51349;52.424;10.840;2023-11-21T23:34:56;5.13;;;2.80;;
64868;SDS011;51349;52.424;10.840;2023-11-21T23:39:57;6.67;;;2.80;;
64868;SDS011;51349;52.424;10.840;2023-11-21T23:44:59;3.83;;;2.53;;
64868;SDS011;51349;52.424;10.840;2023-11-21T23:50:01;5.37;;;2.87;;
64868;SDS011;51349;52.424;10.840;2023-11-21T23:55:04;3.10;;;2.40;;
